sensor_id;sensor_type;location;lat;lon;timestamp;temperature;humidity
4518;DHT22;2271;49.464;11.070;2022-11-14T00:00:06;6.90;99.90
4518;DHT22;2271;49.464;11.070;2022-11-14T00:02:32;7.00;99.90
4518;DHT22;2271;49.464;11.070;2022-11-14T00:04:57;7.00;99.90
4518;DHT22;2271;49.464;11.070;2022-11-14T00:07:23;7.00;99.90
4518;DHT22;2271;49.464;11.070;2022-11-14T00:09:49;7.00;99.90
4518;DHT22;2271;49.464;11.070;2022-11-14T00:12:14;7.10;99.90
4518;DHT22;2271;49.464;11.070;2022-11-14T00:14:40;7.10;99.90
4518;DHT22;2271;49.464;11.070;2022-11-14T00:17:05;7.10;99.90
4518;DHT22;2271;49.464;11.070;2022-11-14T00:19:31;7.10;99.90
4518;DHT22;2271;49.464;11.070;2022-11-14T00:21:57;7.10;99.90
4518;DHT22;2271;49.464;11.070;2022-11-14T00:24:24;7.10;99.90
4518;DHT22;2271;49.464;11.070;2022-11-14T00:26:50;7.10;99.90
4518;DHT22;2271;49.464;11.070;2022-11-14T00:29:16;7.10;99.90
4518;DHT22;2271;49.464;11.070;2022-11-14T00:31:42;7.10;99.90
4518;DHT22;2271;49.464;11.070;2022-11-14T00:34:07;7.10;99.90
4518;DHT22;2271;49.464;11.070;2022-11-14T00:36:33;7.10;99.90
4518;DHT22;2271;49.464;11.070;2022-11-14T00:38:59;7.10;99.90
4518;DHT22;2271;49.464;11.070;2022-11-14T00:41:25;7.10;99.90
4518;DHT22;2271;49.464;11.070;2022-11-14T00:43:50;7.00;99.90
4518;DHT22;2271;49.464;11.070;2022-11-14T00:46:16;7.10;99.90
4518;DHT22;2271;49.464;11.070;2022-11-14T00:48:42;7.00;99.90
4518;DHT22;2271;49.464;11.070;2022-11-14T00:51:08;7.10;99.90
4518;DHT22;2271;49.464;11.070;2022-11-14T00:53:34;7.10;99.90
4518;DHT22;2271;49.464;11.070;2022-11-14T00:55:59;7.10;99.90
4518;DHT22;2271;49.464;11.070;2022-11-14T00:58:25;7.10;99.90
4518;DHT22;2271;49.464;11.070;2022-11-14T01:00:51;7.10;99.90
4518;DHT22;2271;49.464;11.070;2022-11-14T01:03:16;7.10;99.90
4518;DHT22;2271;49.464;11.070;2022-11-14T01:05:43;7.10;99.90
4518;DHT22;2271;49.464;11.070;2022-11-14T01:08:10;7.10;99.90
4518;DHT22;2271;49.464;11.070;2022-11-14T01:10:40;7.00;99.90
4518;DHT22;2271;49.464;11.070;2022-11-14T01:13:06;7.00;99.90
4518;DHT22;2271;49.464;11.070;2022-11-14T01:15:32;7.00;99.90
4518;DHT22;2271;49.464;11.070;2022-11-14T01:17:58;7.00;99.90
4518;DHT22;2271;49.464;11.070;2022-11-14T01:20:23;7.00;99.90
4518;DHT22;2271;49.464;11.070;2022-11-14T01:22:49;7.00;99.90
4518;DHT22;2271;49.464;11.070;2022-11-14T01:25:15;7.00;99.90
4518;DHT22;2271;49.464;11.070;2022-11-14T01:27:40;7.00;99.90
4518;DHT22;2271;49.464;11.070;2022-11-14T01:30:06;7.00;99.90
4518;DHT22;2271;49.464;11.070;2022-11-14T01:32:32;7.00;99.90
4518;DHT22;2271;49.464;11.070;2022-11-14T01:34:58;7.00;99.90
4518;DHT22;2271;49.464;11.070;2022-11-14T01:37:23;7.10;99.90
4518;DHT22;2271;49.464;11.070;2022-11-14T01:39:49;7.10;99.90
4518;DHT22;2271;49.464;11.070;2022-11-14T01:42:15;7.10;99.90
4518;DHT22;2271;49.464;11.070;2022-11-14T01:44:46;7.10;99.90
4518;DHT22;2271;49.464;11.070;2022-11-14T01:47:23;7.10;99.90
4518;DHT22;2271;49.464;11.070;2022-11-14T01:49:54;7.10;99.90
4518;DHT22;2271;49.464;11.070;2022-11-14T01:52:26;7.10;99.90
4518;DHT22;2271;49.464;11.070;2022-11-14T01:54:58;7.10;99.90
4518;DHT22;2271;49.464;11.070;2022-11-14T01:57:27;7.00;99.90
4518;DHT22;2271;49.464;11.070;2022-11-14T01:59:56;7.10;99.90
4518;DHT22;2271;49.464;11.070;2022-11-14T02:02:25;7.00;99.90
4518;DHT22;2271;49.464;11.070;2022-11-14T02:04:58;7.00;99.90
4518;DHT22;2271;49.464;11.070;2022-11-14T02:07:26;7.10;99.90
4518;DHT22;2271;49.464;11.070;2022-11-14T02:09:54;7.10;99.90
4518;DHT22;2271;49.464;11.070;2022-11-14T02:12:21;7.10;99.90
4518;DHT22;2271;49.464;11.070;2022-11-14T02:14:49;7.10;99.90
4518;DHT22;2271;49.464;11.070;2022-11-14T02:17:17;7.00;99.90
4518;DHT22;2271;49.464;11.070;2022-11-14T02:22:13;7.00;99.90
4518;DHT22;2271;49.464;11.070;2022-11-14T02:24:39;7.00;99.90
4518;DHT22;2271;49.464;11.070;2022-11-14T02:27:05;7.00;99.90
4518;DHT22;2271;49.464;11.070;2022-11-14T02:29:34;7.00;99.90
4518;DHT22;2271;49.464;11.070;2022-11-14T02:32:01;7.00;99.90
4518;DHT22;2271;49.464;11.070;2022-11-14T02:34:27;7.00;99.90
4518;DHT22;2271;49.464;11.070;2022-11-14T02:36:53;7.00;99.90
4518;DHT22;2271;49.464;11.070;2022-11-14T02:39:18;7.00;99.90
4518;DHT22;2271;49.464;11.070;2022-11-14T02:41:44;7.00;99.90
4518;DHT22;2271;49.464;11.070;2022-11-14T02:44:10;7.00;99.90
4518;DHT22;2271;49.464;11.070;2022-11-14T02:46:36;7.00;99.90
4518;DHT22;2271;49.464;11.070;2022-11-14T02:49:01;6.90;99.90
4518;DHT22;2271;49.464;11.070;2022-11-14T02:51:27;6.90;99.90
4518;DHT22;2271;49.464;11.070;2022-11-14T02:53:53;6.90;99.90
4518;DHT22;2271;49.464;11.070;2022-11-14T02:56:18;6.90;99.90
4518;DHT22;2271;49.464;11.070;2022-11-14T02:58:44;6.80;99.90
4518;DHT22;2271;49.464;11.070;2022-11-14T03:01:10;6.80;99.90
4518;DHT22;2271;49.464;11.070;2022-11-14T03:03:35;6.80;99.90
4518;DHT22;2271;49.464;11.070;2022-11-14T03:06:02;6.80;99.90
4518;DHT22;2271;49.464;11.070;2022-11-14T03:08:28;6.80;99.90
4518;DHT22;2271;49.464;11.070;2022-11-14T03:10:54;6.70;99.90
4518;DHT22;2271;49.464;11.070;2022-11-14T03:13:20;6.70;99.90
4518;DHT22;2271;49.464;11.070;2022-11-14T03:15:45;6.70;99.90
4518;DHT22;2271;49.464;11.070;2022-11-14T03:18:11;6.60;99.90
4518;DHT22;2271;49.464;11.070;2022-11-14T03:20:37;6.60;99.90
4518;DHT22;2271;49.464;11.070;2022-11-14T03:23:03;6.60;99.90
4518;DHT22;2271;49.464;11.070;2022-11-14T03:25:29;6.60;99.90
4518;DHT22;2271;49.464;11.070;2022-11-14T03:27:54;6.50;99.90
4518;DHT22;2271;49.464;11.070;2022-11-14T03:30:20;6.40;99.90
4518;DHT22;2271;49.464;11.070;2022-11-14T03:32:46;6.40;99.90
4518;DHT22;2271;49.464;11.070;2022-11-14T03:35:11;6.40;99.90
4518;DHT22;2271;49.464;11.070;2022-11-14T03:37:37;6.40;99.90
4518;DHT22;2271;49.464;11.070;2022-11-14T03:40:03;6.40;99.90
4518;DHT22;2271;49.464;11.070;2022-11-14T03:42:32;6.40;99.90
4518;DHT22;2271;49.464;11.070;2022-11-14T03:44:59;6.40;99.90
4518;DHT22;2271;49.464;11.070;2022-11-14T03:47:24;6.40;99.90
4518;DHT22;2271;49.464;11.070;2022-11-14T03:49:50;6.40;99.90
4518;DHT22;2271;49.464;11.070;2022-11-14T03:52:15;6.40;99.90
4518;DHT22;2271;49.464;11.070;2022-11-14T03:54:41;6.50;99.90
4518;DHT22;2271;49.464;11.070;2022-11-14T03:57:07;6.50;99.90
4518;DHT22;2271;49.464;11.070;2022-11-14T03:59:32;6.50;99.90
4518;DHT22;2271;49.464;11.070;2022-11-14T04:01:58;6.60;99.90
4518;DHT22;2271;49.464;11.070;2022-11-14T04:04:23;6.50;99.90
4518;DHT22;2271;49.464;11.070;2022-11-14T04:06:49;6.50;99.90
4518;DHT22;2271;49.464;11.070;2022-11-14T04:09:15;6.40;99.90
4518;DHT22;2271;49.464;11.070;2022-11-14T04:11:40;6.40;99.90
4518;DHT22;2271;49.464;11.070;2022-11-14T04:14:06;6.50;99.90
4518;DHT22;2271;49.464;11.070;2022-11-14T04:16:31;6.50;99.90
4518;DHT22;2271;49.464;11.070;2022-11-14T04:18:57;6.60;99.90
4518;DHT22;2271;49.464;11.070;2022-11-14T04:21:23;6.60;99.90
4518;DHT22;2271;49.464;11.070;2022-11-14T04:23:48;6.60;99.90
4518;DHT22;2271;49.464;11.070;2022-11-14T04:26:14;6.50;99.90
4518;DHT22;2271;49.464;11.070;2022-11-14T04:28:40;6.50;99.90
4518;DHT22;2271;49.464;11.070;2022-11-14T04:31:05;6.40;99.90
4518;DHT22;2271;49.464;11.070;2022-11-14T04:33:31;6.40;99.90
4518;DHT22;2271;49.464;11.070;2022-11-14T04:35:56;6.50;99.90
4518;DHT22;2271;49.464;11.070;2022-11-14T04:38:22;6.30;99.90
4518;DHT22;2271;49.464;11.070;2022-11-14T04:40:49;6.40;99.90
4518;DHT22;2271;49.464;11.070;2022-11-14T04:43:15;6.40;99.90
4518;DHT22;2271;49.464;11.070;2022-11-14T04:45:41;6.40;99.90
4518;DHT22;2271;49.464;11.070;2022-11-14T04:48:07;6.40;99.90
4518;DHT22;2271;49.464;11.070;2022-11-14T04:50:32;6.50;99.90
4518;DHT22;2271;49.464;11.070;2022-11-14T04:52:58;6.40;99.90
4518;DHT22;2271;49.464;11.070;2022-11-14T04:55:24;6.30;99.90
4518;DHT22;2271;49.464;11.070;2022-11-14T04:57:56;6.30;99.90
4518;DHT22;2271;49.464;11.070;2022-11-14T05:00:23;6.30;99.90
4518;DHT22;2271;49.464;11.070;2022-11-14T05:02:49;6.30;99.90
4518;DHT22;2271;49.464;11.070;2022-11-14T05:05:15;6.20;99.90
4518;DHT22;2271;49.464;11.070;2022-11-14T05:07:41;6.20;99.90
4518;DHT22;2271;49.464;11.070;2022-11-14T05:10:07;6.20;99.90
4518;DHT22;2271;49.464;11.070;2022-11-14T05:12:33;6.20;99.90
4518;DHT22;2271;49.464;11.070;2022-11-14T05:14:59;6.20;99.90
4518;DHT22;2271;49.464;11.070;2022-11-14T05:17:25;6.10;99.90
4518;DHT22;2271;49.464;11.070;2022-11-14T05:19:51;6.00;99.90
4518;DHT22;2271;49.464;11.070;2022-11-14T05:22:16;5.90;99.90
4518;DHT22;2271;49.464;11.070;2022-11-14T05:24:42;5.80;99.90
4518;DHT22;2271;49.464;11.070;2022-11-14T05:27:08;5.80;99.90
4518;DHT22;2271;49.464;11.070;2022-11-14T05:29:33;5.80;99.90
4518;DHT22;2271;49.464;11.070;2022-11-14T05:31:59;5.90;99.90
4518;DHT22;2271;49.464;11.070;2022-11-14T05:34:25;6.00;99.90
4518;DHT22;2271;49.464;11.070;2022-11-14T05:36:51;5.90;99.90
4518;DHT22;2271;49.464;11.070;2022-11-14T05:39:17;5.90;99.90
4518;DHT22;2271;49.464;11.070;2022-11-14T05:41:42;5.80;99.90
4518;DHT22;2271;49.464;11.070;2022-11-14T05:44:08;5.70;99.90
4518;DHT22;2271;49.464;11.070;2022-11-14T05:46:34;5.70;99.90
4518;DHT22;2271;49.464;11.070;2022-11-14T05:48:59;5.60;99.90
4518;DHT22;2271;49.464;11.070;2022-11-14T05:51:25;5.70;99.90
4518;DHT22;2271;49.464;11.070;2022-11-14T05:53:51;5.60;99.90
4518;DHT22;2271;49.464;11.070;2022-11-14T05:56:17;5.60;99.90
4518;DHT22;2271;49.464;11.070;2022-11-14T05:58:42;5.50;99.90
4518;DHT22;2271;49.464;11.070;2022-11-14T06:01:14;5.40;99.90
4518;DHT22;2271;49.464;11.070;2022-11-14T06:03:42;5.40;99.90
4518;DHT22;2271;49.464;11.070;2022-11-14T06:06:10;5.40;99.90
4518;DHT22;2271;49.464;11.070;2022-11-14T06:08:37;5.50;99.90
4518;DHT22;2271;49.464;11.070;2022-11-14T06:11:23;5.60;99.90
4518;DHT22;2271;49.464;11.070;2022-11-14T06:13:49;5.60;99.90
4518;DHT22;2271;49.464;11.070;2022-11-14T06:16:16;5.70;99.90
4518;DHT22;2271;49.464;11.070;2022-11-14T06:18:43;5.70;99.90
4518;DHT22;2271;49.464;11.070;2022-11-14T06:21:17;5.70;99.90
4518;DHT22;2271;49.464;11.070;2022-11-14T06:23:44;5.80;99.90
4518;DHT22;2271;49.464;11.070;2022-11-14T06:28:46;5.70;99.90
4518;DHT22;2271;49.464;11.070;2022-11-14T06:31:13;5.70;99.90
4518;DHT22;2271;49.464;11.070;2022-11-14T06:33:39;5.70;99.90
4518;DHT22;2271;49.464;11.070;2022-11-14T06:36:06;5.70;99.90
4518;DHT22;2271;49.464;11.070;2022-11-14T06:38:34;5.70;99.90
4518;DHT22;2271;49.464;11.070;2022-11-14T06:43:34;5.60;99.90
4518;DHT22;2271;49.464;11.070;2022-11-14T06:46:00;5.50;99.90
4518;DHT22;2271;49.464;11.070;2022-11-14T06:48:27;5.40;99.90
4518;DHT22;2271;49.464;11.070;2022-11-14T06:50:56;5.50;99.90
4518;DHT22;2271;49.464;11.070;2022-11-14T06:53:22;5.50;99.90
4518;DHT22;2271;49.464;11.070;2022-11-14T06:55:59;5.60;99.90
4518;DHT22;2271;49.464;11.070;2022-11-14T06:58:30;5.50;99.90
4518;DHT22;2271;49.464;11.070;2022-11-14T07:01:05;5.40;99.90
4518;DHT22;2271;49.464;11.070;2022-11-14T07:03:32;5.50;99.90
4518;DHT22;2271;49.464;11.070;2022-11-14T07:06:03;5.60;99.90
4518;DHT22;2271;49.464;11.070;2022-11-14T07:08:29;5.60;99.90
4518;DHT22;2271;49.464;11.070;2022-11-14T07:11:12;5.70;99.90
4518;DHT22;2271;49.464;11.070;2022-11-14T07:13:51;5.70;99.90
4518;DHT22;2271;49.464;11.070;2022-11-14T07:16:18;5.70;99.90
4518;DHT22;2271;49.464;11.070;2022-11-14T07:18:44;5.60;99.90
4518;DHT22;2271;49.464;11.070;2022-11-14T07:21:11;5.70;99.90
4518;DHT22;2271;49.464;11.070;2022-11-14T07:23:38;5.80;99.90
4518;DHT22;2271;49.464;11.070;2022-11-14T07:26:06;5.90;99.90
4518;DHT22;2271;49.464;11.070;2022-11-14T07:28:38;5.90;99.90
4518;DHT22;2271;49.464;11.070;2022-11-14T07:31:08;5.90;99.90
4518;DHT22;2271;49.464;11.070;2022-11-14T07:33:34;5.80;99.90
4518;DHT22;2271;49.464;11.070;2022-11-14T07:36:00;5.90;99.90
4518;DHT22;2271;49.464;11.070;2022-11-14T07:38:26;5.90;99.90
4518;DHT22;2271;49.464;11.070;2022-11-14T07:40:56;5.90;99.90
4518;DHT22;2271;49.464;11.070;2022-11-14T07:43:22;5.90;99.90
4518;DHT22;2271;49.464;11.070;2022-11-14T07:45:48;6.20;99.90
4518;DHT22;2271;49.464;11.070;2022-11-14T07:48:13;7.10;99.90
4518;DHT22;2271;49.464;11.070;2022-11-14T07:50:39;7.30;99.90
4518;DHT22;2271;49.464;11.070;2022-11-14T07:53:05;7.10;99.90
4518;DHT22;2271;49.464;11.070;2022-11-14T07:55:31;6.90;99.90
4518;DHT22;2271;49.464;11.070;2022-11-14T07:57:58;6.80;99.90
4518;DHT22;2271;49.464;11.070;2022-11-14T08:00:24;6.70;99.90
4518;DHT22;2271;49.464;11.070;2022-11-14T08:02:50;6.60;99.90
4518;DHT22;2271;49.464;11.070;2022-11-14T08:05:16;6.50;99.90
4518;DHT22;2271;49.464;11.070;2022-11-14T08:07:42;6.40;99.90
4518;DHT22;2271;49.464;11.070;2022-11-14T08:10:08;6.40;99.90
4518;DHT22;2271;49.464;11.070;2022-11-14T08:12:36;6.30;99.90
4518;DHT22;2271;49.464;11.070;2022-11-14T08:15:07;6.20;99.90
4518;DHT22;2271;49.464;11.070;2022-11-14T08:17:34;6.20;99.90
4518;DHT22;2271;49.464;11.070;2022-11-14T08:19:59;6.20;99.90
4518;DHT22;2271;49.464;11.070;2022-11-14T08:22:25;6.10;99.90
4518;DHT22;2271;49.464;11.070;2022-11-14T08:24:50;6.00;99.90
4518;DHT22;2271;49.464;11.070;2022-11-14T08:27:19;6.20;99.90
4518;DHT22;2271;49.464;11.070;2022-11-14T08:29:45;6.20;99.90
4518;DHT22;2271;49.464;11.070;2022-11-14T08:32:10;6.30;99.90
4518;DHT22;2271;49.464;11.070;2022-11-14T08:34:36;6.20;99.90
4518;DHT22;2271;49.464;11.070;2022-11-14T08:37:02;6.30;99.90
4518;DHT22;2271;49.464;11.070;2022-11-14T08:39:28;6.40;99.90
4518;DHT22;2271;49.464;11.070;2022-11-14T08:41:53;6.40;99.90
4518;DHT22;2271;49.464;11.070;2022-11-14T08:44:19;6.50;99.90
4518;DHT22;2271;49.464;11.070;2022-11-14T08:46:45;6.50;99.90
4518;DHT22;2271;49.464;11.070;2022-11-14T08:49:10;6.50;99.90
4518;DHT22;2271;49.464;11.070;2022-11-14T08:51:36;6.60;99.90
4518;DHT22;2271;49.464;11.070;2022-11-14T08:54:02;6.60;99.90
4518;DHT22;2271;49.464;11.070;2022-11-14T08:56:27;6.60;99.90
4518;DHT22;2271;49.464;11.070;2022-11-14T08:58:53;6.60;99.90
4518;DHT22;2271;49.464;11.070;2022-11-14T09:01:19;6.70;99.90
4518;DHT22;2271;49.464;11.070;2022-11-14T09:03:44;6.80;99.90
4518;DHT22;2271;49.464;11.070;2022-11-14T09:06:10;6.80;99.90
4518;DHT22;2271;49.464;11.070;2022-11-14T09:08:36;6.90;99.90
4518;DHT22;2271;49.464;11.070;2022-11-14T09:11:02;7.00;99.90
4518;DHT22;2271;49.464;11.070;2022-11-14T09:13:32;7.20;99.90
4518;DHT22;2271;49.464;11.070;2022-11-14T09:15:58;7.20;99.90
4518;DHT22;2271;49.464;11.070;2022-11-14T09:18:23;7.30;99.90
4518;DHT22;2271;49.464;11.070;2022-11-14T09:20:49;7.30;99.90
4518;DHT22;2271;49.464;11.070;2022-11-14T09:23:14;7.40;99.90
4518;DHT22;2271;49.464;11.070;2022-11-14T09:25:40;7.40;99.90
4518;DHT22;2271;49.464;11.070;2022-11-14T09:28:07;7.50;99.90
4518;DHT22;2271;49.464;11.070;2022-11-14T09:30:34;7.60;99.90
4518;DHT22;2271;49.464;11.070;2022-11-14T09:33:01;7.70;99.90
4518;DHT22;2271;49.464;11.070;2022-11-14T09:35:28;7.80;99.90
4518;DHT22;2271;49.464;11.070;2022-11-14T09:38:09;7.90;99.90
4518;DHT22;2271;49.464;11.070;2022-11-14T09:46:19;8.30;99.90
4518;DHT22;2271;49.464;11.070;2022-11-14T09:48:46;8.30;99.90
4518;DHT22;2271;49.464;11.070;2022-11-14T09:51:19;8.30;99.90
4518;DHT22;2271;49.464;11.070;2022-11-14T09:53:48;8.30;99.90
4518;DHT22;2271;49.464;11.070;2022-11-14T09:56:23;8.40;99.90
4518;DHT22;2271;49.464;11.070;2022-11-14T09:58:50;8.40;99.90
4518;DHT22;2271;49.464;11.070;2022-11-14T10:04:19;8.50;99.90
4518;DHT22;2271;49.464;11.070;2022-11-14T10:12:14;8.60;99.90
4518;DHT22;2271;49.464;11.070;2022-11-14T10:17:48;8.70;99.90
4518;DHT22;2271;49.464;11.070;2022-11-14T10:20:31;8.70;99.90
4518;DHT22;2271;49.464;11.070;2022-11-14T10:23:25;8.80;99.90
4518;DHT22;2271;49.464;11.070;2022-11-14T10:36:59;9.30;99.90
4518;DHT22;2271;49.464;11.070;2022-11-14T10:39:52;9.40;99.90
4518;DHT22;2271;49.464;11.070;2022-11-14T10:42:23;9.50;99.90
4518;DHT22;2271;49.464;11.070;2022-11-14T10:47:21;9.80;99.90
4518;DHT22;2271;49.464;11.070;2022-11-14T10:49:52;10.00;99.90
4518;DHT22;2271;49.464;11.070;2022-11-14T10:52:21;10.00;99.90
4518;DHT22;2271;49.464;11.070;2022-11-14T10:54:55;10.10;99.90
4518;DHT22;2271;49.464;11.070;2022-11-14T10:57:29;10.20;99.90
4518;DHT22;2271;49.464;11.070;2022-11-14T10:59:55;10.30;99.90
4518;DHT22;2271;49.464;11.070;2022-11-14T11:02:21;10.30;99.90
4518;DHT22;2271;49.464;11.070;2022-11-14T11:04:47;10.30;99.90
4518;DHT22;2271;49.464;11.070;2022-11-14T11:07:24;10.40;99.90
4518;DHT22;2271;49.464;11.070;2022-11-14T11:10:20;10.50;99.90
4518;DHT22;2271;49.464;11.070;2022-11-14T11:13:05;10.50;99.90
4518;DHT22;2271;49.464;11.070;2022-11-14T11:15:40;10.60;99.90
4518;DHT22;2271;49.464;11.070;2022-11-14T11:18:26;10.50;99.90
4518;DHT22;2271;49.464;11.070;2022-11-14T11:21:10;10.60;99.90
4518;DHT22;2271;49.464;11.070;2022-11-14T11:23:50;10.60;99.90
4518;DHT22;2271;49.464;11.070;2022-11-14T11:26:29;10.60;99.90
4518;DHT22;2271;49.464;11.070;2022-11-14T11:34:14;10.80;99.90
4518;DHT22;2271;49.464;11.070;2022-11-14T11:36:46;10.90;99.90
4518;DHT22;2271;49.464;11.070;2022-11-14T11:39:22;11.00;99.90
4518;DHT22;2271;49.464;11.070;2022-11-14T11:41:50;11.00;99.90
4518;DHT22;2271;49.464;11.070;2022-11-14T11:44:18;11.00;99.90
4518;DHT22;2271;49.464;11.070;2022-11-14T11:46:54;11.10;99.90
4518;DHT22;2271;49.464;11.070;2022-11-14T11:49:45;11.10;99.90
4518;DHT22;2271;49.464;11.070;2022-11-14T11:55:20;11.30;99.90
4518;DHT22;2271;49.464;11.070;2022-11-14T11:58:01;11.30;99.90
4518;DHT22;2271;49.464;11.070;2022-11-14T12:00:29;11.20;99.90
4518;DHT22;2271;49.464;11.070;2022-11-14T12:02:56;11.20;99.90
4518;DHT22;2271;49.464;11.070;2022-11-14T12:10:55;11.30;99.90
4518;DHT22;2271;49.464;11.070;2022-11-14T12:32:32;11.20;99.90
4518;DHT22;2271;49.464;11.070;2022-11-14T12:34:59;11.30;99.90
4518;DHT22;2271;49.464;11.070;2022-11-14T12:37:33;11.30;99.90
4518;DHT22;2271;49.464;11.070;2022-11-14T12:40:25;11.40;99.90
4518;DHT22;2271;49.464;11.070;2022-11-14T12:42:51;11.50;99.90
4518;DHT22;2271;49.464;11.070;2022-11-14T12:48:20;11.60;99.90
4518;DHT22;2271;49.464;11.070;2022-11-14T12:50:46;11.60;99.90
4518;DHT22;2271;49.464;11.070;2022-11-14T12:56:17;11.60;99.90
4518;DHT22;2271;49.464;11.070;2022-11-14T13:07:21;11.90;99.90
4518;DHT22;2271;49.464;11.070;2022-11-14T13:10:23;11.90;99.90
4518;DHT22;2271;49.464;11.070;2022-11-14T13:13:08;11.80;99.90
4518;DHT22;2271;49.464;11.070;2022-11-14T13:15:59;11.90;99.90
4518;DHT22;2271;49.464;11.070;2022-11-14T13:21:37;11.90;99.90
4518;DHT22;2271;49.464;11.070;2022-11-14T13:24:16;11.90;99.90
4518;DHT22;2271;49.464;11.070;2022-11-14T13:26:46;11.90;99.90
4518;DHT22;2271;49.464;11.070;2022-11-14T13:29:50;12.00;99.90
4518;DHT22;2271;49.464;11.070;2022-11-14T13:38:12;12.00;99.90
4518;DHT22;2271;49.464;11.070;2022-11-14T13:49:12;12.00;99.90
4518;DHT22;2271;49.464;11.070;2022-11-14T13:51:45;12.00;99.90
4518;DHT22;2271;49.464;11.070;2022-11-14T13:54:15;12.10;99.90
4518;DHT22;2271;49.464;11.070;2022-11-14T14:02:46;12.20;99.90
4518;DHT22;2271;49.464;11.070;2022-11-14T14:08:10;12.20;99.90
4518;DHT22;2271;49.464;11.070;2022-11-14T14:10:48;12.20;99.90
4518;DHT22;2271;49.464;11.070;2022-11-14T14:16:35;12.10;99.90
4518;DHT22;2271;49.464;11.070;2022-11-14T14:19:33;12.10;99.90
4518;DHT22;2271;49.464;11.070;2022-11-14T14:22:03;12.10;99.90
4518;DHT22;2271;49.464;11.070;2022-11-14T14:30:23;12.10;99.90
4518;DHT22;2271;49.464;11.070;2022-11-14T14:35:34;12.00;99.90
4518;DHT22;2271;49.464;11.070;2022-11-14T14:38:00;12.00;99.90
4518;DHT22;2271;49.464;11.070;2022-11-14T14:40:33;12.00;99.90
4518;DHT22;2271;49.464;11.070;2022-11-14T14:43:01;12.00;99.90
4518;DHT22;2271;49.464;11.070;2022-11-14T14:45:28;12.00;99.90
4518;DHT22;2271;49.464;11.070;2022-11-14T14:48:13;11.90;99.90
4518;DHT22;2271;49.464;11.070;2022-11-14T14:50:46;11.90;99.90
4518;DHT22;2271;49.464;11.070;2022-11-14T14:53:29;11.90;99.90
4518;DHT22;2271;49.464;11.070;2022-11-14T14:58:30;11.80;99.90
4518;DHT22;2271;49.464;11.070;2022-11-14T15:01:11;11.80;99.90
4518;DHT22;2271;49.464;11.070;2022-11-14T15:03:39;11.80;99.90
4518;DHT22;2271;49.464;11.070;2022-11-14T15:08:43;11.80;99.90
4518;DHT22;2271;49.464;11.070;2022-11-14T15:11:10;11.80;99.90
4518;DHT22;2271;49.464;11.070;2022-11-14T15:13:38;11.80;99.90
4518;DHT22;2271;49.464;11.070;2022-11-14T15:16:05;11.80;99.90
4518;DHT22;2271;49.464;11.070;2022-11-14T15:18:32;11.80;99.90
4518;DHT22;2271;49.464;11.070;2022-11-14T15:23:44;11.80;99.90
4518;DHT22;2271;49.464;11.070;2022-11-14T15:26:16;11.80;99.90
4518;DHT22;2271;49.464;11.070;2022-11-14T15:28:42;11.80;99.90
4518;DHT22;2271;49.464;11.070;2022-11-14T15:31:18;11.70;99.90
4518;DHT22;2271;49.464;11.070;2022-11-14T15:33:58;11.70;99.90
4518;DHT22;2271;49.464;11.070;2022-11-14T15:36:24;11.70;99.90
4518;DHT22;2271;49.464;11.070;2022-11-14T15:39:28;11.70;99.90
4518;DHT22;2271;49.464;11.070;2022-11-14T15:44:51;11.70;99.90
4518;DHT22;2271;49.464;11.070;2022-11-14T15:47:20;11.60;99.90
4518;DHT22;2271;49.464;11.070;2022-11-14T15:52:35;11.60;99.90
4518;DHT22;2271;49.464;11.070;2022-11-14T15:55:02;11.50;99.90
4518;DHT22;2271;49.464;11.070;2022-11-14T15:57:30;12.10;99.90
4518;DHT22;2271;49.464;11.070;2022-11-14T15:59:56;12.50;99.90
4518;DHT22;2271;49.464;11.070;2022-11-14T16:02:28;12.30;99.90
4518;DHT22;2271;49.464;11.070;2022-11-14T16:04:55;12.10;99.90
4518;DHT22;2271;49.464;11.070;2022-11-14T16:07:22;11.90;99.90
4518;DHT22;2271;49.464;11.070;2022-11-14T16:09:47;11.70;99.90
4518;DHT22;2271;49.464;11.070;2022-11-14T16:12:13;11.60;99.90
4518;DHT22;2271;49.464;11.070;2022-11-14T16:14:40;11.50;99.90
4518;DHT22;2271;49.464;11.070;2022-11-14T16:17:12;11.40;99.90
4518;DHT22;2271;49.464;11.070;2022-11-14T16:19:38;11.30;99.90
4518;DHT22;2271;49.464;11.070;2022-11-14T16:22:05;11.30;99.90
4518;DHT22;2271;49.464;11.070;2022-11-14T16:24:30;11.20;99.90
4518;DHT22;2271;49.464;11.070;2022-11-14T16:26:56;11.20;99.90
4518;DHT22;2271;49.464;11.070;2022-11-14T16:29:23;11.20;99.90
4518;DHT22;2271;49.464;11.070;2022-11-14T16:31:48;11.10;99.90
4518;DHT22;2271;49.464;11.070;2022-11-14T16:34:21;11.10;99.90
4518;DHT22;2271;49.464;11.070;2022-11-14T16:36:47;11.10;99.90
4518;DHT22;2271;49.464;11.070;2022-11-14T16:39:13;11.00;99.90
4518;DHT22;2271;49.464;11.070;2022-11-14T16:41:40;11.00;99.90
4518;DHT22;2271;49.464;11.070;2022-11-14T16:44:11;11.00;99.90
4518;DHT22;2271;49.464;11.070;2022-11-14T16:46:37;10.90;99.90
4518;DHT22;2271;49.464;11.070;2022-11-14T16:49:03;10.90;99.90
4518;DHT22;2271;49.464;11.070;2022-11-14T16:51:29;10.80;99.90
4518;DHT22;2271;49.464;11.070;2022-11-14T16:53:55;10.80;99.90
4518;DHT22;2271;49.464;11.070;2022-11-14T16:56:21;10.80;99.90
4518;DHT22;2271;49.464;11.070;2022-11-14T16:58:46;10.80;99.90
4518;DHT22;2271;49.464;11.070;2022-11-14T17:01:13;10.70;99.90
4518;DHT22;2271;49.464;11.070;2022-11-14T17:03:40;10.70;99.90
4518;DHT22;2271;49.464;11.070;2022-11-14T17:06:07;10.70;99.90
4518;DHT22;2271;49.464;11.070;2022-11-14T17:08:34;10.70;99.90
4518;DHT22;2271;49.464;11.070;2022-11-14T17:11:00;10.70;99.90
4518;DHT22;2271;49.464;11.070;2022-11-14T17:13:27;10.70;99.90
4518;DHT22;2271;49.464;11.070;2022-11-14T17:15:53;10.70;99.90
4518;DHT22;2271;49.464;11.070;2022-11-14T17:18:19;10.70;99.90
4518;DHT22;2271;49.464;11.070;2022-11-14T17:20:44;10.70;99.90
4518;DHT22;2271;49.464;11.070;2022-11-14T17:23:10;10.70;99.90
4518;DHT22;2271;49.464;11.070;2022-11-14T17:25:35;10.70;99.90
4518;DHT22;2271;49.464;11.070;2022-11-14T17:28:01;10.70;99.90
4518;DHT22;2271;49.464;11.070;2022-11-14T17:30:27;10.70;99.90
4518;DHT22;2271;49.464;11.070;2022-11-14T17:32:52;10.70;99.90
4518;DHT22;2271;49.464;11.070;2022-11-14T17:35:19;10.60;99.90
4518;DHT22;2271;49.464;11.070;2022-11-14T17:37:45;10.60;99.90
4518;DHT22;2271;49.464;11.070;2022-11-14T17:40:11;10.50;99.90
4518;DHT22;2271;49.464;11.070;2022-11-14T17:42:36;10.60;99.90
4518;DHT22;2271;49.464;11.070;2022-11-14T17:45:02;10.60;99.90
4518;DHT22;2271;49.464;11.070;2022-11-14T17:47:28;10.50;99.90
4518;DHT22;2271;49.464;11.070;2022-11-14T17:49:53;10.50;99.90
4518;DHT22;2271;49.464;11.070;2022-11-14T17:52:19;10.50;99.90
4518;DHT22;2271;49.464;11.070;2022-11-14T17:54:45;10.50;99.90
4518;DHT22;2271;49.464;11.070;2022-11-14T17:57:10;10.40;99.90
4518;DHT22;2271;49.464;11.070;2022-11-14T17:59:37;10.40;99.90
4518;DHT22;2271;49.464;11.070;2022-11-14T18:02:05;10.40;99.90
4518;DHT22;2271;49.464;11.070;2022-11-14T18:04:31;10.40;99.90
4518;DHT22;2271;49.464;11.070;2022-11-14T18:06:56;10.30;99.90
4518;DHT22;2271;49.464;11.070;2022-11-14T18:09:22;10.30;99.90
4518;DHT22;2271;49.464;11.070;2022-11-14T18:11:48;10.30;99.90
4518;DHT22;2271;49.464;11.070;2022-11-14T18:14:14;10.30;99.90
4518;DHT22;2271;49.464;11.070;2022-11-14T18:16:40;10.30;99.90
4518;DHT22;2271;49.464;11.070;2022-11-14T18:19:05;10.30;99.90